sensor_id;sensor_type;location;lat;lon;timestamp;P1;durP1;ratioP1;P2;durP2;ratioP2
61527;SDS011;47395;42.032;-8.634;2023-05-07T00:01:16;1999.90;;;999.90;;
61527;SDS011;47395;42.032;-8.634;2023-05-07T00:03:17;1999.90;;;999.90;;
61527;SDS011;47395;42.032;-8.634;2023-05-07T00:05:18;1999.90;;;999.90;;
61527;SDS011;47395;42.032;-8.634;2023-05-07T00:07:19;1999.90;;;999.90;;
61527;SDS011;47395;42.032;-8.634;2023-05-07T00:09:20;1999.90;;;999.90;;
61527;SDS011;47395;42.032;-8.634;2023-05-07T00:11:21;1999.90;;;999.90;;
61527;SDS011;47395;42.032;-8.634;2023-05-07T00:13:22;1999.90;;;999.90;;
61527;SDS011;47395;42.032;-8.634;2023-05-07T00:15:22;1999.90;;;999.90;;
61527;SDS011;47395;42.032;-8.634;2023-05-07T00:17:23;1999.90;;;999.90;;
61527;SDS011;47395;42.032;-8.634;2023-05-07T00:19:24;1999.90;;;999.90;;
61527;SDS011;47395;42.032;-8.634;2023-05-07T00:21:25;1999.90;;;999.90;;
61527;SDS011;47395;42.032;-8.634;2023-05-07T00:23:28;1999.90;;;999.90;;
61527;SDS011;47395;42.032;-8.634;2023-05-07T00:25:29;1999.90;;;999.90;;
61527;SDS011;47395;42.032;-8.634;2023-05-07T00:27:30;1999.90;;;999.90;;
61527;SDS011;47395;42.032;-8.634;2023-05-07T00:29:31;1999.90;;;999.90;;
61527;SDS011;47395;42.032;-8.634;2023-05-07T00:31:31;1999.90;;;999.90;;
61527;SDS011;47395;42.032;-8.634;2023-05-07T00:33:32;1999.90;;;999.90;;
61527;SDS011;47395;42.032;-8.634;2023-05-07T00:35:33;1999.90;;;999.90;;
61527;SDS011;47395;42.032;-8.634;2023-05-07T00:37:34;1999.90;;;999.90;;
61527;SDS011;47395;42.032;-8.634;2023-05-07T00:39:35;1999.90;;;999.90;;
61527;SDS011;47395;42.032;-8.634;2023-05-07T00:41:36;1999.90;;;999.90;;
61527;SDS011;47395;42.032;-8.634;2023-05-07T00:43:37;1999.90;;;999.90;;
61527;SDS011;47395;42.032;-8.634;2023-05-07T00:45:38;1999.90;;;999.90;;
61527;SDS011;47395;42.032;-8.634;2023-05-07T00:47:39;1999.90;;;999.90;;
61527;SDS011;47395;42.032;-8.634;2023-05-07T00:49:44;1999.90;;;999.90;;
61527;SDS011;47395;42.032;-8.634;2023-05-07T00:51:45;1999.90;;;999.90;;
61527;SDS011;47395;42.032;-8.634;2023-05-07T00:53:47;1999.90;;;999.90;;
61527;SDS011;47395;42.032;-8.634;2023-05-07T00:55:48;1999.90;;;999.90;;
61527;SDS011;47395;42.032;-8.634;2023-05-07T00:57:50;1999.90;;;999.90;;
61527;SDS011;47395;42.032;-8.634;2023-05-07T00:59:51;1999.90;;;999.90;;
61527;SDS011;47395;42.032;-8.634;2023-05-07T01:01:52;1999.90;;;999.90;;
61527;SDS011;47395;42.032;-8.634;2023-05-07T01:03:56;1999.90;;;999.90;;
61527;SDS011;47395;42.032;-8.634;2023-05-07T01:05:57;1999.90;;;999.90;;
61527;SDS011;47395;42.032;-8.634;2023-05-07T01:08:01;1999.90;;;999.90;;
61527;SDS011;47395;42.032;-8.634;2023-05-07T01:10:05;1999.90;;;999.90;;
61527;SDS011;47395;42.032;-8.634;2023-05-07T01:12:07;1999.90;;;999.90;;
61527;SDS011;47395;42.032;-8.634;2023-05-07T01:14:09;1999.90;;;999.90;;
61527;SDS011;47395;42.032;-8.634;2023-05-07T01:16:10;1999.90;;;999.90;;
61527;SDS011;47395;42.032;-8.634;2023-05-07T01:18:11;1999.90;;;999.90;;
61527;SDS011;47395;42.032;-8.634;2023-05-07T01:20:12;1999.90;;;999.90;;
61527;SDS011;47395;42.032;-8.634;2023-05-07T01:22:16;1999.90;;;999.90;;
61527;SDS011;47395;42.032;-8.634;2023-05-07T01:24:29;1999.90;;;999.90;;
61527;SDS011;47395;42.032;-8.634;2023-05-07T01:26:32;1999.90;;;999.90;;
61527;SDS011;47395;42.032;-8.634;2023-05-07T01:28:33;1999.90;;;999.90;;
61527;SDS011;47395;42.032;-8.634;2023-05-07T01:30:35;1999.90;;;999.90;;
61527;SDS011;47395;42.032;-8.634;2023-05-07T01:32:46;1999.90;;;999.90;;
61527;SDS011;47395;42.032;-8.634;2023-05-07T01:34:51;1999.90;;;999.90;;
61527;SDS011;47395;42.032;-8.634;2023-05-07T01:36:54;1999.90;;;999.90;;
61527;SDS011;47395;42.032;-8.634;2023-05-07T01:38:58;1999.90;;;999.90;;
61527;SDS011;47395;42.032;-8.634;2023-05-07T01:41:00;1999.90;;;999.90;;
61527;SDS011;47395;42.032;-8.634;2023-05-07T01:43:04;1999.90;;;999.90;;
61527;SDS011;47395;42.032;-8.634;2023-05-07T01:45:07;1999.90;;;999.90;;
61527;SDS011;47395;42.032;-8.634;2023-05-07T01:47:08;1999.90;;;999.90;;
61527;SDS011;47395;42.032;-8.634;2023-05-07T01:49:10;1999.90;;;999.90;;
61527;SDS011;47395;42.032;-8.634;2023-05-07T01:51:11;1999.90;;;999.90;;
61527;SDS011;47395;42.032;-8.634;2023-05-07T01:53:12;1999.90;;;999.90;;
61527;SDS011;47395;42.032;-8.634;2023-05-07T01:55:12;1999.90;;;999.90;;
61527;SDS011;47395;42.032;-8.634;2023-05-07T01:57:14;1999.90;;;999.90;;
61527;SDS011;47395;42.032;-8.634;2023-05-07T01:59:15;1999.90;;;999.90;;
61527;SDS011;47395;42.032;-8.634;2023-05-07T02:01:16;1999.90;;;999.90;;
61527;SDS011;47395;42.032;-8.634;2023-05-07T02:03:17;1999.90;;;999.90;;
61527;SDS011;47395;42.032;-8.634;2023-05-07T02:05:26;1999.90;;;999.90;;
61527;SDS011;47395;42.032;-8.634;2023-05-07T02:07:33;1999.90;;;999.90;;
61527;SDS011;47395;42.032;-8.634;2023-05-07T02:09:34;1999.90;;;999.90;;
61527;SDS011;47395;42.032;-8.634;2023-05-07T02:11:35;1998.57;;;999.90;;
61527;SDS011;47395;42.032;-8.634;2023-05-07T02:13:36;1999.90;;;999.90;;
61527;SDS011;47395;42.032;-8.634;2023-05-07T02:15:37;1999.90;;;999.90;;
61527;SDS011;47395;42.032;-8.634;2023-05-07T02:22:00;1994.90;;;999.90;;
61527;SDS011;47395;42.032;-8.634;2023-05-07T02:24:04;1999.90;;;999.90;;
61527;SDS011;47395;42.032;-8.634;2023-05-07T02:26:05;1999.90;;;999.90;;
61527;SDS011;47395;42.032;-8.634;2023-05-07T02:28:06;1999.90;;;999.90;;
61527;SDS011;47395;42.032;-8.634;2023-05-07T02:30:31;1999.90;;;999.90;;
61527;SDS011;47395;42.032;-8.634;2023-05-07T02:32:33;1999.90;;;999.90;;
61527;SDS011;47395;42.032;-8.634;2023-05-07T02:34:34;1999.90;;;999.90;;
61527;SDS011;47395;42.032;-8.634;2023-05-07T02:36:35;1999.90;;;999.90;;
61527;SDS011;47395;42.032;-8.634;2023-05-07T02:38:43;1999.90;;;999.90;;
61527;SDS011;47395;42.032;-8.634;2023-05-07T02:40:44;1999.90;;;999.90;;
61527;SDS011;47395;42.032;-8.634;2023-05-07T02:42:45;1999.90;;;999.90;;
61527;SDS011;47395;42.032;-8.634;2023-05-07T02:44:45;1999.90;;;999.90;;
61527;SDS011;47395;42.032;-8.634;2023-05-07T02:46:47;1999.90;;;999.90;;
61527;SDS011;47395;42.032;-8.634;2023-05-07T02:48:47;1999.90;;;999.90;;
61527;SDS011;47395;42.032;-8.634;2023-05-07T02:50:48;1999.90;;;999.90;;
61527;SDS011;47395;42.032;-8.634;2023-05-07T02:52:49;1991.57;;;999.90;;
61527;SDS011;47395;42.032;-8.634;2023-05-07T02:54:50;1999.90;;;999.90;;
61527;SDS011;47395;42.032;-8.634;2023-05-07T02:56:51;1999.90;;;999.90;;
61527;SDS011;47395;42.032;-8.634;2023-05-07T02:58:51;1999.90;;;999.90;;
61527;SDS011;47395;42.032;-8.634;2023-05-07T03:00:54;1999.90;;;999.90;;
61527;SDS011;47395;42.032;-8.634;2023-05-07T03:03:04;1999.90;;;999.90;;
61527;SDS011;47395;42.032;-8.634;2023-05-07T03:05:05;1999.90;;;999.90;;
61527;SDS011;47395;42.032;-8.634;2023-05-07T03:07:06;1999.90;;;999.90;;
61527;SDS011;47395;42.032;-8.634;2023-05-07T03:09:07;1999.90;;;999.90;;
61527;SDS011;47395;42.032;-8.634;2023-05-07T03:11:09;1999.90;;;999.90;;
61527;SDS011;47395;42.032;-8.634;2023-05-07T03:13:10;1999.90;;;999.90;;
61527;SDS011;47395;42.032;-8.634;2023-05-07T03:15:11;1999.90;;;999.90;;
61527;SDS011;47395;42.032;-8.634;2023-05-07T03:17:13;1999.90;;;999.90;;
61527;SDS011;47395;42.032;-8.634;2023-05-07T03:19:13;1999.90;;;999.90;;
61527;SDS011;47395;42.032;-8.634;2023-05-07T03:21:14;1999.90;;;999.90;;
61527;SDS011;47395;42.032;-8.634;2023-05-07T03:23:15;1999.90;;;999.90;;
61527;SDS011;47395;42.032;-8.634;2023-05-07T03:25:16;1999.90;;;999.90;;
61527;SDS011;47395;42.032;-8.634;2023-05-07T03:27:17;1999.90;;;999.90;;
61527;SDS011;47395;42.032;-8.634;2023-05-07T03:29:18;1999.90;;;999.90;;
61527;SDS011;47395;42.032;-8.634;2023-05-07T03:31:19;1999.90;;;999.90;;
61527;SDS011;47395;42.032;-8.634;2023-05-07T03:33:19;1999.90;;;999.90;;
61527;SDS011;47395;42.032;-8.634;2023-05-07T03:35:21;1990.88;;;999.90;;
61527;SDS011;47395;42.032;-8.634;2023-05-07T03:37:22;1999.90;;;999.90;;
61527;SDS011;47395;42.032;-8.634;2023-05-07T03:39:23;1999.90;;;999.90;;
61527;SDS011;47395;42.032;-8.634;2023-05-07T03:41:24;1999.90;;;999.90;;
61527;SDS011;47395;42.032;-8.634;2023-05-07T03:43:26;1999.90;;;999.90;;
61527;SDS011;47395;42.032;-8.634;2023-05-07T03:45:34;1999.90;;;999.90;;
61527;SDS011;47395;42.032;-8.634;2023-05-07T03:47:43;1999.90;;;999.90;;
61527;SDS011;47395;42.032;-8.634;2023-05-07T03:49:46;1999.90;;;999.90;;
61527;SDS011;47395;42.032;-8.634;2023-05-07T03:51:49;1994.25;;;999.90;;
61527;SDS011;47395;42.032;-8.634;2023-05-07T03:53:50;1999.90;;;999.90;;
61527;SDS011;47395;42.032;-8.634;2023-05-07T03:55:54;1992.72;;;999.90;;
61527;SDS011;47395;42.032;-8.634;2023-05-07T03:57:55;1999.90;;;999.90;;
61527;SDS011;47395;42.032;-8.634;2023-05-07T03:59:59;1999.90;;;999.90;;
61527;SDS011;47395;42.032;-8.634;2023-05-07T04:04:10;1999.90;;;999.90;;
61527;SDS011;47395;42.032;-8.634;2023-05-07T04:06:11;1999.90;;;999.90;;
61527;SDS011;47395;42.032;-8.634;2023-05-07T04:08:12;1999.90;;;999.90;;
61527;SDS011;47395;42.032;-8.634;2023-05-07T04:10:16;1999.90;;;999.90;;
61527;SDS011;47395;42.032;-8.634;2023-05-07T04:12:19;1999.90;;;999.90;;
61527;SDS011;47395;42.032;-8.634;2023-05-07T04:14:20;1999.90;;;999.90;;
61527;SDS011;47395;42.032;-8.634;2023-05-07T04:16:21;1999.90;;;999.90;;
61527;SDS011;47395;42.032;-8.634;2023-05-07T04:18:22;1999.90;;;999.90;;
61527;SDS011;47395;42.032;-8.634;2023-05-07T04:20:23;1999.90;;;999.90;;
61527;SDS011;47395;42.032;-8.634;2023-05-07T04:22:31;1999.90;;;999.90;;
61527;SDS011;47395;42.032;-8.634;2023-05-07T04:24:32;1999.90;;;999.90;;
61527;SDS011;47395;42.032;-8.634;2023-05-07T04:26:34;1999.90;;;999.90;;
61527;SDS011;47395;42.032;-8.634;2023-05-07T04:28:35;1999.90;;;999.90;;
61527;SDS011;47395;42.032;-8.634;2023-05-07T04:30:36;1999.90;;;999.90;;
61527;SDS011;47395;42.032;-8.634;2023-05-07T04:32:40;1999.90;;;999.90;;
61527;SDS011;47395;42.032;-8.634;2023-05-07T04:34:40;1999.90;;;999.90;;
61527;SDS011;47395;42.032;-8.634;2023-05-07T04:36:42;1999.90;;;999.90;;
61527;SDS011;47395;42.032;-8.634;2023-05-07T04:38:45;1999.90;;;999.90;;
61527;SDS011;47395;42.032;-8.634;2023-05-07T04:40:46;1999.90;;;999.90;;
61527;SDS011;47395;42.032;-8.634;2023-05-07T04:42:52;1999.90;;;999.90;;
61527;SDS011;47395;42.032;-8.634;2023-05-07T04:44:53;1999.90;;;999.90;;
61527;SDS011;47395;42.032;-8.634;2023-05-07T04:46:56;1999.90;;;999.90;;
61527;SDS011;47395;42.032;-8.634;2023-05-07T04:48:58;1999.90;;;999.90;;
61527;SDS011;47395;42.032;-8.634;2023-05-07T04:50:59;1999.90;;;999.90;;
61527;SDS011;47395;42.032;-8.634;2023-05-07T04:53:00;1999.90;;;999.90;;
61527;SDS011;47395;42.032;-8.634;2023-05-07T04:55:01;1999.90;;;999.90;;
61527;SDS011;47395;42.032;-8.634;2023-05-07T04:57:08;1999.90;;;999.90;;
61527;SDS011;47395;42.032;-8.634;2023-05-07T04:59:09;1999.90;;;999.90;;
61527;SDS011;47395;42.032;-8.634;2023-05-07T05:01:10;1999.90;;;999.90;;
61527;SDS011;47395;42.032;-8.634;2023-05-07T05:03:12;1999.90;;;999.90;;
61527;SDS011;47395;42.032;-8.634;2023-05-07T05:05:14;1999.90;;;999.90;;
61527;SDS011;47395;42.032;-8.634;2023-05-07T05:07:15;1999.90;;;999.90;;
61527;SDS011;47395;42.032;-8.634;2023-05-07T05:09:16;1999.90;;;999.90;;
61527;SDS011;47395;42.032;-8.634;2023-05-07T05:11:16;1999.90;;;999.90;;
61527;SDS011;47395;42.032;-8.634;2023-05-07T05:13:17;1999.90;;;999.90;;
61527;SDS011;47395;42.032;-8.634;2023-05-07T05:15:18;1999.90;;;999.90;;
61527;SDS011;47395;42.032;-8.634;2023-05-07T05:17:19;1999.90;;;999.90;;
61527;SDS011;47395;42.032;-8.634;2023-05-07T05:19:20;1999.90;;;999.90;;
61527;SDS011;47395;42.032;-8.634;2023-05-07T05:21:21;1999.90;;;999.90;;
61527;SDS011;47395;42.032;-8.634;2023-05-07T05:23:26;1999.90;;;999.90;;
61527;SDS011;47395;42.032;-8.634;2023-05-07T05:25:27;1999.90;;;999.90;;
61527;SDS011;47395;42.032;-8.634;2023-05-07T05:27:29;1999.90;;;999.90;;
61527;SDS011;47395;42.032;-8.634;2023-05-07T05:29:30;1999.90;;;999.90;;
61527;SDS011;47395;42.032;-8.634;2023-05-07T05:31:32;1999.90;;;999.90;;
61527;SDS011;47395;42.032;-8.634;2023-05-07T05:33:33;1999.90;;;999.90;;
61527;SDS011;47395;42.032;-8.634;2023-05-07T05:35:38;1999.90;;;999.90;;
61527;SDS011;47395;42.032;-8.634;2023-05-07T05:37:41;1999.90;;;999.90;;
61527;SDS011;47395;42.032;-8.634;2023-05-07T05:39:42;1999.90;;;999.90;;
61527;SDS011;47395;42.032;-8.634;2023-05-07T05:41:44;1999.90;;;999.90;;
61527;SDS011;47395;42.032;-8.634;2023-05-07T05:43:46;1999.90;;;999.90;;
61527;SDS011;47395;42.032;-8.634;2023-05-07T05:45:47;1999.90;;;999.90;;
61527;SDS011;47395;42.032;-8.634;2023-05-07T05:47:48;1999.90;;;999.90;;
61527;SDS011;47395;42.032;-8.634;2023-05-07T05:49:49;1999.90;;;999.90;;
61527;SDS011;47395;42.032;-8.634;2023-05-07T05:51:50;1999.90;;;999.90;;
61527;SDS011;47395;42.032;-8.634;2023-05-07T05:53:51;1999.90;;;999.90;;
61527;SDS011;47395;42.032;-8.634;2023-05-07T05:55:52;1999.43;;;999.90;;
61527;SDS011;47395;42.032;-8.634;2023-05-07T05:57:53;1999.90;;;999.90;;
61527;SDS011;47395;42.032;-8.634;2023-05-07T05:59:55;1999.90;;;999.90;;
61527;SDS011;47395;42.032;-8.634;2023-05-07T06:01:56;1999.90;;;999.90;;
61527;SDS011;47395;42.032;-8.634;2023-05-07T06:03:57;1999.90;;;999.90;;
61527;SDS011;47395;42.032;-8.634;2023-05-07T06:05:58;1999.90;;;999.90;;
61527;SDS011;47395;42.032;-8.634;2023-05-07T06:08:00;1999.90;;;999.90;;
61527;SDS011;47395;42.032;-8.634;2023-05-07T06:10:05;1999.90;;;999.90;;
61527;SDS011;47395;42.032;-8.634;2023-05-07T06:12:07;1999.90;;;999.90;;
61527;SDS011;47395;42.032;-8.634;2023-05-07T06:14:08;1999.90;;;999.90;;
61527;SDS011;47395;42.032;-8.634;2023-05-07T06:16:09;1999.90;;;999.90;;
61527;SDS011;47395;42.032;-8.634;2023-05-07T06:18:11;1999.90;;;999.90;;
61527;SDS011;47395;42.032;-8.634;2023-05-07T06:20:12;1999.90;;;999.90;;
61527;SDS011;47395;42.032;-8.634;2023-05-07T06:22:14;1999.90;;;999.90;;
61527;SDS011;47395;42.032;-8.634;2023-05-07T06:24:15;1999.90;;;999.90;;
61527;SDS011;47395;42.032;-8.634;2023-05-07T06:26:16;1999.90;;;999.90;;
61527;SDS011;47395;42.032;-8.634;2023-05-07T06:28:20;1999.90;;;999.90;;
61527;SDS011;47395;42.032;-8.634;2023-05-07T06:30:21;1999.90;;;999.90;;
61527;SDS011;47395;42.032;-8.634;2023-05-07T06:32:22;1999.90;;;999.90;;
61527;SDS011;47395;42.032;-8.634;2023-05-07T06:34:24;1999.90;;;999.90;;
61527;SDS011;47395;42.032;-8.634;2023-05-07T06:36:25;1999.90;;;999.90;;
61527;SDS011;47395;42.032;-8.634;2023-05-07T06:38:30;1999.90;;;999.90;;
61527;SDS011;47395;42.032;-8.634;2023-05-07T06:40:30;1999.90;;;999.90;;
61527;SDS011;47395;42.032;-8.634;2023-05-07T06:42:33;1999.90;;;999.90;;
61527;SDS011;47395;42.032;-8.634;2023-05-07T06:44:52;1999.90;;;999.90;;
61527;SDS011;47395;42.032;-8.634;2023-05-07T06:46:53;1999.90;;;999.90;;
61527;SDS011;47395;42.032;-8.634;2023-05-07T06:48:53;1999.90;;;999.90;;
61527;SDS011;47395;42.032;-8.634;2023-05-07T06:50:54;1999.90;;;999.90;;
61527;SDS011;47395;42.032;-8.634;2023-05-07T06:52:58;1999.90;;;999.90;;
61527;SDS011;47395;42.032;-8.634;2023-05-07T06:54:59;1996.53;;;999.90;;
61527;SDS011;47395;42.032;-8.634;2023-05-07T06:57:01;1999.90;;;999.90;;
61527;SDS011;47395;42.032;-8.634;2023-05-07T06:59:02;1999.90;;;999.90;;
61527;SDS011;47395;42.032;-8.634;2023-05-07T07:01:08;1999.90;;;999.90;;
61527;SDS011;47395;42.032;-8.634;2023-05-07T07:03:10;1999.90;;;999.90;;
61527;SDS011;47395;42.032;-8.634;2023-05-07T07:05:12;1999.90;;;999.90;;
61527;SDS011;47395;42.032;-8.634;2023-05-07T07:07:13;1999.90;;;999.90;;
61527;SDS011;47395;42.032;-8.634;2023-05-07T07:09:15;1999.90;;;999.90;;
61527;SDS011;47395;42.032;-8.634;2023-05-07T07:11:16;1999.90;;;999.90;;
61527;SDS011;47395;42.032;-8.634;2023-05-07T07:13:17;1999.90;;;999.90;;
61527;SDS011;47395;42.032;-8.634;2023-05-07T07:15:19;1999.90;;;999.90;;
61527;SDS011;47395;42.032;-8.634;2023-05-07T07:17:25;1999.90;;;999.90;;
61527;SDS011;47395;42.032;-8.634;2023-05-07T07:19:26;1999.90;;;999.90;;
61527;SDS011;47395;42.032;-8.634;2023-05-07T07:21:29;1999.90;;;999.90;;
61527;SDS011;47395;42.032;-8.634;2023-05-07T07:23:30;1999.90;;;999.90;;
61527;SDS011;47395;42.032;-8.634;2023-05-07T07:25:31;1999.90;;;999.90;;
61527;SDS011;47395;42.032;-8.634;2023-05-07T07:27:33;1999.90;;;999.90;;
61527;SDS011;47395;42.032;-8.634;2023-05-07T07:29:34;1999.90;;;999.90;;
61527;SDS011;47395;42.032;-8.634;2023-05-07T07:31:36;1999.90;;;999.90;;
61527;SDS011;47395;42.032;-8.634;2023-05-07T07:33:37;1999.90;;;999.90;;
61527;SDS011;47395;42.032;-8.634;2023-05-07T07:35:37;1999.90;;;999.90;;
61527;SDS011;47395;42.032;-8.634;2023-05-07T07:37:40;1999.90;;;999.90;;
61527;SDS011;47395;42.032;-8.634;2023-05-07T07:39:40;1999.90;;;999.90;;
61527;SDS011;47395;42.032;-8.634;2023-05-07T07:41:42;1999.90;;;999.90;;
61527;SDS011;47395;42.032;-8.634;2023-05-07T07:43:43;1999.90;;;999.90;;
61527;SDS011;47395;42.032;-8.634;2023-05-07T07:45:44;1999.90;;;999.90;;
61527;SDS011;47395;42.032;-8.634;2023-05-07T07:47:46;1999.90;;;999.90;;
61527;SDS011;47395;42.032;-8.634;2023-05-07T07:49:47;1999.90;;;999.90;;
61527;SDS011;47395;42.032;-8.634;2023-05-07T07:51:48;1999.90;;;999.90;;
61527;SDS011;47395;42.032;-8.634;2023-05-07T07:53:50;1999.90;;;999.90;;
61527;SDS011;47395;42.032;-8.634;2023-05-07T07:55:52;1999.90;;;999.90;;
61527;SDS011;47395;42.032;-8.634;2023-05-07T07:57:55;1999.90;;;999.90;;
61527;SDS011;47395;42.032;-8.634;2023-05-07T07:59:57;1999.90;;;999.90;;
61527;SDS011;47395;42.032;-8.634;2023-05-07T08:01:58;1999.90;;;999.90;;
61527;SDS011;47395;42.032;-8.634;2023-05-07T08:04:01;1999.90;;;999.90;;
61527;SDS011;47395;42.032;-8.634;2023-05-07T08:06:04;1999.90;;;999.90;;
61527;SDS011;47395;42.032;-8.634;2023-05-07T08:08:07;1999.90;;;999.90;;
61527;SDS011;47395;42.032;-8.634;2023-05-07T08:10:11;1999.90;;;999.90;;
61527;SDS011;47395;42.032;-8.634;2023-05-07T08:12:12;1999.90;;;999.90;;
61527;SDS011;47395;42.032;-8.634;2023-05-07T08:14:13;1999.90;;;999.90;;
61527;SDS011;47395;42.032;-8.634;2023-05-07T08:16:17;1999.90;;;999.90;;
61527;SDS011;47395;42.032;-8.634;2023-05-07T08:18:18;1999.90;;;999.90;;
61527;SDS011;47395;42.032;-8.634;2023-05-07T08:20:19;1999.90;;;999.90;;
61527;SDS011;47395;42.032;-8.634;2023-05-07T08:22:20;1999.90;;;999.90;;
61527;SDS011;47395;42.032;-8.634;2023-05-07T08:24:22;1999.90;;;999.90;;
61527;SDS011;47395;42.032;-8.634;2023-05-07T08:26:23;1999.90;;;999.90;;
61527;SDS011;47395;42.032;-8.634;2023-05-07T08:28:24;1999.90;;;999.90;;
61527;SDS011;47395;42.032;-8.634;2023-05-07T08:30:25;1999.90;;;999.90;;
61527;SDS011;47395;42.032;-8.634;2023-05-07T08:32:27;1999.90;;;999.90;;
61527;SDS011;47395;42.032;-8.634;2023-05-07T08:34:28;1999.90;;;999.90;;
61527;SDS011;47395;42.032;-8.634;2023-05-07T08:36:30;1999.90;;;999.90;;
61527;SDS011;47395;42.032;-8.634;2023-05-07T08:38:31;1999.90;;;999.90;;
61527;SDS011;47395;42.032;-8.634;2023-05-07T08:40:35;1999.90;;;999.90;;
61527;SDS011;47395;42.032;-8.634;2023-05-07T08:42:39;1999.90;;;999.90;;
61527;SDS011;47395;42.032;-8.634;2023-05-07T08:44:42;1999.90;;;999.90;;
61527;SDS011;47395;42.032;-8.634;2023-05-07T08:46:50;1999.90;;;999.90;;
61527;SDS011;47395;42.032;-8.634;2023-05-07T08:48:54;1999.90;;;999.90;;
61527;SDS011;47395;42.032;-8.634;2023-05-07T08:50:55;1999.90;;;999.90;;
61527;SDS011;47395;42.032;-8.634;2023-05-07T08:52:56;1999.90;;;999.90;;
61527;SDS011;47395;42.032;-8.634;2023-05-07T08:54:57;1999.90;;;999.90;;
61527;SDS011;47395;42.032;-8.634;2023-05-07T08:56:59;1997.68;;;999.90;;
61527;SDS011;47395;42.032;-8.634;2023-05-07T08:59:01;1999.90;;;999.90;;
61527;SDS011;47395;42.032;-8.634;2023-05-07T09:01:08;1957.82;;;999.90;;
61527;SDS011;47395;42.032;-8.634;2023-05-07T09:03:12;1965.03;;;999.90;;
61527;SDS011;47395;42.032;-8.634;2023-05-07T09:05:15;1907.93;;;999.90;;
61527;SDS011;47395;42.032;-8.634;2023-05-07T09:07:16;1907.43;;;999.90;;
61527;SDS011;47395;42.032;-8.634;2023-05-07T09:09:18;1875.63;;;999.90;;
61527;SDS011;47395;42.032;-8.634;2023-05-07T09:11:20;1994.88;;;999.90;;
61527;SDS011;47395;42.032;-8.634;2023-05-07T09:13:22;1956.97;;;999.90;;
61527;SDS011;47395;42.032;-8.634;2023-05-07T09:15:23;1981.45;;;999.90;;
61527;SDS011;47395;42.032;-8.634;2023-05-07T09:17:26;1999.00;;;999.90;;
61527;SDS011;47395;42.032;-8.634;2023-05-07T09:19:27;1999.90;;;999.90;;
61527;SDS011;47395;42.032;-8.634;2023-05-07T09:21:29;1975.05;;;999.90;;
61527;SDS011;47395;42.032;-8.634;2023-05-07T09:23:33;1999.90;;;999.90;;
61527;SDS011;47395;42.032;-8.634;2023-05-07T09:25:34;1999.90;;;999.90;;
61527;SDS011;47395;42.032;-8.634;2023-05-07T09:27:42;1981.75;;;999.90;;
61527;SDS011;47395;42.032;-8.634;2023-05-07T09:29:43;1962.40;;;999.90;;
61527;SDS011;47395;42.032;-8.634;2023-05-07T09:31:45;1997.07;;;999.90;;
61527;SDS011;47395;42.032;-8.634;2023-05-07T09:33:50;1935.60;;;999.90;;
61527;SDS011;47395;42.032;-8.634;2023-05-07T09:35:52;1954.30;;;999.90;;
61527;SDS011;47395;42.032;-8.634;2023-05-07T09:37:57;1904.18;;;999.90;;
61527;SDS011;47395;42.032;-8.634;2023-05-07T09:40:00;1870.13;;;999.90;;
61527;SDS011;47395;42.032;-8.634;2023-05-07T09:42:04;1858.07;;;999.90;;
61527;SDS011;47395;42.032;-8.634;2023-05-07T09:44:08;1776.72;;;999.90;;
61527;SDS011;47395;42.032;-8.634;2023-05-07T09:46:14;1969.60;;;999.90;;
61527;SDS011;47395;42.032;-8.634;2023-05-07T09:48:23;1821.55;;;999.90;;
61527;SDS011;47395;42.032;-8.634;2023-05-07T09:50:40;1889.35;;;999.90;;
61527;SDS011;47395;42.032;-8.634;2023-05-07T09:52:55;1760.47;;;999.90;;
61527;SDS011;47395;42.032;-8.634;2023-05-07T09:54:57;1970.18;;;999.90;;
61527;SDS011;47395;42.032;-8.634;2023-05-07T09:57:02;1743.22;;;999.90;;
61527;SDS011;47395;42.032;-8.634;2023-05-07T09:59:04;1896.20;;;999.90;;
61527;SDS011;47395;42.032;-8.634;2023-05-07T10:01:07;1905.43;;;999.90;;
61527;SDS011;47395;42.032;-8.634;2023-05-07T10:03:10;1868.68;;;999.90;;
61527;SDS011;47395;42.032;-8.634;2023-05-07T10:05:24;1839.90;;;999.90;;
61527;SDS011;47395;42.032;-8.634;2023-05-07T10:07:29;1929.45;;;999.90;;
61527;SDS011;47395;42.032;-8.634;2023-05-07T10:09:36;1792.57;;;999.90;;
61527;SDS011;47395;42.032;-8.634;2023-05-07T10:11:41;1939.60;;;999.90;;
61527;SDS011;47395;42.032;-8.634;2023-05-07T10:13:43;1949.60;;;999.90;;
61527;SDS011;47395;42.032;-8.634;2023-05-07T10:15:46;1862.30;;;999.90;;
61527;SDS011;47395;42.032;-8.634;2023-05-07T10:17:48;1985.80;;;999.90;;
61527;SDS011;47395;42.032;-8.634;2023-05-07T10:19:51;1999.90;;;999.90;;
61527;SDS011;47395;42.032;-8.634;2023-05-07T10:21:55;1999.90;;;999.90;;
61527;SDS011;47395;42.032;-8.634;2023-05-07T10:24:04;1999.90;;;999.90;;
61527;SDS011;47395;42.032;-8.634;2023-05-07T10:26:14;1988.75;;;999.90;;
61527;SDS011;47395;42.032;-8.634;2023-05-07T10:28:17;1928.03;;;999.90;;
61527;SDS011;47395;42.032;-8.634;2023-05-07T10:33:15;1999.90;;;999.90;;
61527;SDS011;47395;42.032;-8.634;2023-05-07T10:35:20;1999.90;;;999.90;;
61527;SDS011;47395;42.032;-8.634;2023-05-07T10:37:25;1999.90;;;999.90;;
61527;SDS011;47395;42.032;-8.634;2023-05-07T10:39:26;1999.90;;;999.90;;
61527;SDS011;47395;42.032;-8.634;2023-05-07T10:41:27;1999.90;;;999.90;;
61527;SDS011;47395;42.032;-8.634;2023-05-07T10:43:41;1999.90;;;999.90;;
61527;SDS011;47395;42.032;-8.634;2023-05-07T10:45:45;1999.90;;;999.90;;
61527;SDS011;47395;42.032;-8.634;2023-05-07T10:48:26;1999.90;;;999.90;;
61527;SDS011;47395;42.032;-8.634;2023-05-07T10:50:29;1999.90;;;999.90;;
61527;SDS011;47395;42.032;-8.634;2023-05-07T10:52:35;1997.65;;;999.90;;
61527;SDS011;47395;42.032;-8.634;2023-05-07T10:55:20;1999.90;;;999.90;;
61527;SDS011;47395;42.032;-8.634;2023-05-07T10:57:41;1968.00;;;999.90;;
61527;SDS011;47395;42.032;-8.634;2023-05-07T10:59:57;1999.90;;;999.90;;
61527;SDS011;47395;42.032;-8.634;2023-05-07T11:02:02;1999.90;;;999.90;;
61527;SDS011;47395;42.032;-8.634;2023-05-07T11:04:36;1999.90;;;999.90;;
61527;SDS011;47395;42.032;-8.634;2023-05-07T11:09:27;1999.90;;;999.90;;
61527;SDS011;47395;42.032;-8.634;2023-05-07T11:12:09;1960.18;;;999.90;;
61527;SDS011;47395;42.032;-8.634;2023-05-07T11:17:04;1999.90;;;999.90;;
61527;SDS011;47395;42.032;-8.634;2023-05-07T11:19:06;1999.90;;;999.90;;
61527;SDS011;47395;42.032;-8.634;2023-05-07T11:21:12;1999.90;;;999.90;;
61527;SDS011;47395;42.032;-8.634;2023-05-07T11:26:09;1999.90;;;999.90;;
61527;SDS011;47395;42.032;-8.634;2023-05-07T11:28:12;1999.90;;;999.90;;
61527;SDS011;47395;42.032;-8.634;2023-05-07T11:30:19;1999.90;;;999.90;;
61527;SDS011;47395;42.032;-8.634;2023-05-07T11:32:23;1999.90;;;999.90;;
61527;SDS011;47395;42.032;-8.634;2023-05-07T11:34:26;1999.90;;;999.90;;
61527;SDS011;47395;42.032;-8.634;2023-05-07T11:36:30;1999.90;;;999.90;;
61527;SDS011;47395;42.032;-8.634;2023-05-07T11:38:35;1999.90;;;999.90;;